Time;durP1;ratioP1;P1;durP2;ratioP2;P2;SDS_P1;SDS_P2;PMS_P1;PMS_P2;Temp;Humidity;BMP_temperature;BMP_pressure;BME280_temperature;BME280_humidity;BME280_pressure;Samples;Min_cycle;Max_cycle;Signal;HPM_P1;HPM_P2
2023/04/24 00:02:31;;;;;;;0.90;0.60;;;12.30;99.90;;;;;;1916793;74;21050;-83
2023/04/24 00:05:26;;;;;;;0.68;0.55;;;12.30;99.90;;;;;;1916093;75;21109;-82
2023/04/24 00:08:17;;;;;;;1.98;0.68;;;12.30;99.90;;;;;;1916298;75;21118;-83
2023/04/24 00:11:09;;;;;;;1.40;0.60;;;12.30;99.90;;;;;;1899803;74;21080;-82
2023/04/24 00:14:01;;;;;;;0.98;0.53;;;12.30;99.90;;;;;;1918322;74;21353;-82
2023/04/24 00:16:52;;;;;;;1.25;0.60;;;12.30;99.90;;;;;;1919818;74;21055;-82
2023/04/24 00:19:43;;;;;;;0.72;0.50;;;12.30;99.90;;;;;;1918777;74;21137;-82
2023/04/24 00:22:35;;;;;;;0.72;0.60;;;12.30;99.90;;;;;;1911858;75;21196;-82
2023/04/24 00:25:27;;;;;;;0.70;0.60;;;12.30;99.90;;;;;;1910417;75;21180;-82
2023/04/24 00:28:18;;;;;;;2.17;0.65;;;12.30;99.90;;;;;;1910538;75;21155;-82
2023/04/24 00:31:09;;;;;;;1.95;0.60;;;12.30;99.90;;;;;;1910521;75;21130;-82
2023/04/24 00:34:01;;;;;;;2.90;0.60;;;12.40;99.90;;;;;;1887555;75;21098;-81
2023/04/24 00:36:52;;;;;;;1.62;0.50;;;12.30;99.90;;;;;;1882371;75;21098;-83
2023/04/24 00:39:43;;;;;;;0.50;0.30;;;12.30;99.90;;;;;;1911915;74;21438;-82
2023/04/24 00:42:35;;;;;;;0.53;0.40;;;12.30;99.90;;;;;;1906853;75;21179;-82
2023/04/24 00:45:27;;;;;;;0.93;0.70;;;12.30;99.90;;;;;;1888181;75;21179;-82
2023/04/24 00:48:19;;;;;;;1.70;0.50;;;12.30;99.90;;;;;;1907375;75;21077;-82
2023/04/24 00:51:11;;;;;;;1.40;0.45;;;12.20;99.90;;;;;;1911828;75;21209;-81
2023/04/24 00:54:02;;;;;;;2.00;0.50;;;12.20;99.90;;;;;;1910227;75;21083;-81
2023/04/24 00:56:54;;;;;;;1.95;0.60;;;12.20;99.90;;;;;;1902184;75;21163;-82
2023/04/24 00:59:46;;;;;;;0.47;0.40;;;12.20;99.90;;;;;;1895212;75;21127;-82
2023/04/24 01:02:39;;;;;;;1.57;0.50;;;12.20;99.90;;;;;;1919979;74;21101;-81
2023/04/24 01:08:15;;;;;;;2.60;0.53;;;12.20;99.90;;;;;;1953593;72;22213;-81
2023/04/24 01:11:06;;;;;;;0.40;0.40;;;12.30;99.90;;;;;;1897742;75;21105;-81
2023/04/24 01:13:59;;;;;;;2.95;0.50;;;12.30;99.90;;;;;;1884197;76;21181;-81
2023/04/24 01:16:50;;;;;;;1.50;0.80;;;12.20;99.90;;;;;;1906212;75;21086;-81
2023/04/24 01:19:44;;;;;;;1.27;0.60;;;12.20;99.90;;;;;;1904360;75;21156;-83
2023/04/24 01:22:40;;;;;;;1.30;0.85;;;12.20;99.90;;;;;;1899026;75;21099;-82
2023/04/24 01:25:34;;;;;;;2.10;0.78;;;12.30;99.90;;;;;;1906786;75;21110;-82
2023/04/24 01:28:26;;;;;;;1.10;0.60;;;12.30;99.90;;;;;;1906197;75;21221;-82
2023/04/24 01:31:17;;;;;;;1.22;0.90;;;12.30;99.90;;;;;;1906065;75;21086;-81
2023/04/24 01:34:09;;;;;;;1.05;0.60;;;12.20;99.90;;;;;;1900697;75;21134;-82
2023/04/24 01:37:01;;;;;;;1.05;0.68;;;12.10;99.90;;;;;;1904942;75;21114;-82
2023/04/24 01:39:52;;;;;;;0.78;0.60;;;12.10;99.90;;;;;;1902566;75;21104;-82
2023/04/24 01:42:46;;;;;;;1.75;0.50;;;12.20;99.90;;;;;;1889930;75;21099;-82
2023/04/24 01:45:37;;;;;;;1.98;0.60;;;12.20;99.90;;;;;;1898635;75;21161;-82
2023/04/24 01:48:30;;;;;;;3.10;0.50;;;12.20;99.90;;;;;;1884237;73;21211;-82
2023/04/24 01:51:22;;;;;;;2.05;0.40;;;12.00;99.90;;;;;;1893028;75;21117;-82
2023/04/24 01:54:13;;;;;;;4.28;0.50;;;12.10;99.90;;;;;;1891479;75;21127;-82
2023/04/24 01:57:05;;;;;;;2.00;0.42;;;12.10;99.90;;;;;;1904432;75;21110;-82
2023/04/24 01:59:56;;;;;;;0.78;0.42;;;12.10;99.90;;;;;;1899268;75;21174;-82
2023/04/24 02:02:48;;;;;;;0.75;0.33;;;12.10;99.90;;;;;;1883985;75;21557;-81
2023/04/24 02:05:39;;;;;;;0.40;0.30;;;12.10;99.90;;;;;;1887111;75;21622;-82
2023/04/24 02:08:31;;;;;;;0.50;0.35;;;12.10;99.90;;;;;;1901364;74;21115;-82
2023/04/24 02:11:22;;;;;;;1.00;0.53;;;12.10;99.90;;;;;;1909284;74;22271;-82
2023/04/24 02:14:14;;;;;;;3.47;0.60;;;12.10;99.90;;;;;;1893910;76;21167;-82
2023/04/24 02:17:06;;;;;;;1.55;0.45;;;12.20;99.90;;;;;;1920519;73;21101;-82
2023/04/24 02:20:02;;;;;;;0.55;0.40;;;12.20;99.90;;;;;;1903779;74;21138;-82
2023/04/24 02:22:54;;;;;;;0.35;0.35;;;12.20;99.90;;;;;;1907322;74;21146;-82
2023/04/24 02:25:47;;;;;;;1.72;0.60;;;12.20;99.90;;;;;;1893154;76;21569;-82
2023/04/24 02:28:40;;;;;;;0.47;0.40;;;12.20;99.90;;;;;;1914898;74;21539;-82
2023/04/24 02:31:31;;;;;;;0.72;0.40;;;12.20;99.90;;;;;;1893088;74;21118;-82
2023/04/24 02:34:23;;;;;;;0.60;0.30;;;12.20;99.90;;;;;;1913479;74;21106;-82
2023/04/24 02:37:15;;;;;;;1.37;0.42;;;12.30;99.90;;;;;;1925623;74;21098;-81
2023/04/24 02:40:10;;;;;;;2.67;0.40;;;12.30;99.90;;;;;;1915729;74;21144;-82
2023/04/24 02:43:01;;;;;;;1.52;0.30;;;12.10;99.90;;;;;;1915349;74;21098;-82
2023/04/24 02:45:53;;;;;;;1.35;0.30;;;12.10;99.90;;;;;;1915224;74;21160;-81
2023/04/24 02:48:44;;;;;;;0.70;0.30;;;12.00;99.90;;;;;;1893100;74;21171;-81
2023/04/24 02:51:40;;;;;;;0.65;0.40;;;12.00;99.90;;;;;;1904685;74;21107;-82
2023/04/24 02:54:29;;;;;;;2.30;0.40;;;12.10;99.90;;;;;;1903998;74;21113;-82
2023/04/24 02:57:20;;;;;;;1.67;0.40;;;12.10;99.90;;;;;;1903749;74;21108;-81
2023/04/24 03:00:14;;;;;;;1.05;0.40;;;12.00;99.90;;;;;;1908272;74;21054;-81
2023/04/24 03:03:06;;;;;;;1.62;0.35;;;12.00;99.90;;;;;;1892834;74;21179;-82
2023/04/24 03:05:58;;;;;;;0.25;0.20;;;11.90;99.90;;;;;;1890138;74;21654;-82
2023/04/24 03:08:50;;;;;;;0.68;0.35;;;11.90;99.90;;;;;;1887442;75;21141;-82
2023/04/24 03:11:42;;;;;;;2.27;0.42;;;11.90;99.90;;;;;;1903619;75;21126;-81
2023/04/24 03:14:33;;;;;;;1.57;0.40;;;11.90;99.90;;;;;;1888343;75;21086;-83
2023/04/24 03:17:25;;;;;;;1.12;0.40;;;12.00;99.90;;;;;;1902200;74;21115;-83
2023/04/24 03:20:17;;;;;;;0.55;0.30;;;12.00;99.90;;;;;;1894202;75;21116;-83
2023/04/24 03:23:08;;;;;;;0.70;0.40;;;12.00;99.90;;;;;;1894268;75;21118;-82
2023/04/24 03:26:00;;;;;;;0.75;0.40;;;12.00;99.90;;;;;;1898841;75;21134;-82
2023/04/24 03:28:53;;;;;;;2.45;0.37;;;12.00;99.90;;;;;;1896401;75;21090;-82
2023/04/24 03:31:45;;;;;;;0.98;0.40;;;12.00;99.90;;;;;;1877679;75;21152;-82
2023/04/24 03:34:37;;;;;;;0.60;0.30;;;11.90;99.90;;;;;;1876923;75;21115;-82
2023/04/24 03:37:29;;;;;;;1.32;0.40;;;11.90;99.90;;;;;;1883488;76;21154;-81
2023/04/24 03:40:29;;;;;;;1.70;0.40;;;12.00;99.90;;;;;;1899716;75;21102;-81
2023/04/24 03:43:21;;;;;;;0.95;0.78;;;12.00;99.90;;;;;;1904027;75;21122;-82
2023/04/24 03:46:14;;;;;;;0.42;0.33;;;12.00;99.90;;;;;;1876656;75;21102;-83
2023/04/24 03:49:08;;;;;;;0.78;0.45;;;12.00;99.90;;;;;;1906695;75;21130;-83
2023/04/24 03:52:01;;;;;;;1.00;0.53;;;12.00;99.90;;;;;;1903814;75;21140;-83
2023/04/24 03:54:53;;;;;;;1.45;0.40;;;11.90;99.90;;;;;;1904170;75;21071;-82
2023/04/24 03:57:46;;;;;;;1.20;0.47;;;11.90;99.90;;;;;;1882102;75;21589;-82
2023/04/24 04:00:40;;;;;;;0.95;0.42;;;11.90;99.90;;;;;;1878718;75;21145;-82
2023/04/24 04:03:33;;;;;;;0.60;0.40;;;11.90;99.90;;;;;;1883590;73;21146;-82
2023/04/24 04:06:26;;;;;;;0.72;0.40;;;11.90;99.90;;;;;;1884887;75;21181;-82
2023/04/24 04:09:19;;;;;;;0.75;0.50;;;12.00;99.90;;;;;;1894581;74;21111;-82
2023/04/24 04:12:10;;;;;;;1.42;0.50;;;11.90;99.90;;;;;;1888566;75;21099;-83
2023/04/24 04:15:06;;;;;;;1.80;0.50;;;11.90;99.90;;;;;;1884341;75;21109;-83
2023/04/24 04:17:58;;;;;;;4.67;0.50;;;11.90;99.90;;;;;;1897474;73;21201;-83
2023/04/24 04:20:51;;;;;;;1.22;0.50;;;11.90;99.90;;;;;;1897014;75;21136;-82
2023/04/24 04:23:43;;;;;;;1.70;0.45;;;11.80;99.90;;;;;;1893998;75;21096;-82
2023/04/24 04:26:40;;;;;;;1.37;0.60;;;11.80;99.90;;;;;;1894040;75;21137;-82
2023/04/24 04:29:34;;;;;;;3.00;0.90;;;11.80;99.90;;;;;;1894738;75;21553;-82
2023/04/24 04:32:27;;;;;;;1.15;0.47;;;11.90;99.90;;;;;;1883205;73;21094;-82
2023/04/24 04:35:18;;;;;;;0.72;0.60;;;11.80;99.90;;;;;;1894661;75;21107;-82
2023/04/24 04:38:14;;;;;;;1.07;0.50;;;11.80;99.90;;;;;;1893158;75;21554;-82
2023/04/24 04:41:07;;;;;;;1.70;0.90;;;11.70;99.90;;;;;;1891762;75;21060;-82
2023/04/24 04:43:59;;;;;;;7.42;5.10;;;11.80;99.90;;;;;;1901938;75;21090;-82
2023/04/24 04:50:10;;;;;;;8.93;6.40;;;11.80;99.90;;;;;;1897639;75;21064;-82
2023/04/24 04:53:02;;;;;;;2.27;0.88;;;11.80;99.90;;;;;;1899836;75;21055;-82
2023/04/24 04:55:55;;;;;;;3.60;2.30;;;11.70;99.90;;;;;;1905368;75;21106;-83
2023/04/24 04:58:48;;;;;;;4.33;1.65;;;11.70;99.90;;;;;;1883671;75;21098;-82
2023/04/24 05:01:41;;;;;;;1.52;1.12;;;11.70;99.90;;;;;;1909171;73;21089;-82
2023/04/24 05:04:34;;;;;;;1.87;1.65;;;11.70;99.90;;;;;;1895657;75;21134;-82
2023/04/24 05:07:26;;;;;;;1.05;0.62;;;11.70;99.90;;;;;;1878240;75;21585;-82
2023/04/24 05:10:18;;;;;;;2.08;1.02;;;11.70;99.90;;;;;;1912383;74;21078;-82
2023/04/24 05:13:10;;;;;;;4.42;1.35;;;11.70;99.90;;;;;;1931767;74;21131;-81
2023/04/24 05:16:05;;;;;;;4.97;1.52;;;11.70;99.90;;;;;;1914704;74;21167;-82
2023/04/24 05:18:57;;;;;;;2.95;1.98;;;11.60;99.90;;;;;;1899314;73;21075;-82
2023/04/24 05:21:51;;;;;;;4.42;2.58;;;11.60;99.90;;;;;;1904426;74;21474;-82
2023/04/24 05:24:43;;;;;;;3.12;2.52;;;11.60;99.90;;;;;;1909953;74;21046;-82
2023/04/24 05:27:46;;;;;;;3.35;1.80;;;11.60;99.90;;;;;;1913237;74;21114;-82
2023/04/24 05:30:38;;;;;;;1.98;1.32;;;11.70;99.90;;;;;;1899193;74;21103;-77
2023/04/24 05:33:30;;;;;;;3.67;0.93;;;11.70;99.90;;;;;;1912432;73;21171;-77
2023/04/24 05:36:27;;;;;;;2.00;0.98;;;11.70;99.90;;;;;;1914749;74;21124;-78
2023/04/24 05:39:20;;;;;;;3.30;0.70;;;11.80;99.90;;;;;;1892585;76;21129;-77
2023/04/24 05:42:14;;;;;;;2.92;0.88;;;11.90;99.90;;;;;;1909922;74;21171;-77
2023/04/24 05:45:09;;;;;;;1.82;0.95;;;11.90;99.90;;;;;;1905028;74;21534;-77
2023/04/24 05:48:00;;;;;;;2.60;0.70;;;12.00;99.90;;;;;;1903382;73;22331;-77
2023/04/24 05:50:52;;;;;;;3.02;1.00;;;12.00;99.90;;;;;;1902661;74;21259;-77
2023/04/24 05:53:44;;;;;;;1.92;0.70;;;12.00;99.90;;;;;;1912129;74;21059;-77
2023/04/24 05:56:36;;;;;;;1.20;0.90;;;12.00;99.90;;;;;;1924607;74;21122;-79
2023/04/24 05:59:28;;;;;;;5.62;3.65;;;12.00;99.90;;;;;;1892487;74;21492;-77
2023/04/24 06:02:20;;;;;;;2.95;1.12;;;12.10;99.90;;;;;;1911633;73;21151;-77
2023/04/24 06:05:22;;;;;;;1.95;1.00;;;12.10;99.90;;;;;;1914583;74;21116;-77
2023/04/24 06:08:16;;;;;;;1.65;0.93;;;12.10;99.90;;;;;;1911616;74;21179;-77
2023/04/24 06:11:14;;;;;;;3.00;1.17;;;11.90;99.90;;;;;;1899784;74;21103;-77
2023/04/24 06:14:09;;;;;;;2.15;0.70;;;11.70;99.90;;;;;;1882067;75;21169;-77
2023/04/24 06:17:03;;;;;;;1.47;0.82;;;11.60;99.90;;;;;;1908050;73;21230;-77
2023/04/24 06:19:56;;;;;;;2.98;1.05;;;11.50;99.90;;;;;;1905272;75;21126;-77
2023/04/24 06:22:49;;;;;;;2.08;0.78;;;11.40;99.90;;;;;;1888190;75;21153;-77
2023/04/24 06:25:42;;;;;;;2.70;1.37;;;11.40;99.90;;;;;;1883600;75;21079;-79
2023/04/24 06:28:35;;;;;;;2.75;1.00;;;11.40;99.90;;;;;;1874307;75;21232;-79
2023/04/24 06:31:26;;;;;;;2.37;0.98;;;11.40;99.90;;;;;;1893045;75;21103;-79
2023/04/24 06:34:18;;;;;;;1.62;0.98;;;11.40;99.90;;;;;;1902800;75;21153;-79
2023/04/24 06:37:10;;;;;;;2.10;1.10;;;11.40;99.90;;;;;;1883279;76;21106;-77
2023/04/24 06:40:01;;;;;;;1.72;0.90;;;11.50;99.90;;;;;;1892982;75;21151;-77
2023/04/24 06:42:53;;;;;;;2.35;1.02;;;11.50;99.90;;;;;;1875608;75;21096;-77
2023/04/24 06:45:45;;;;;;;3.45;0.95;;;11.50;99.90;;;;;;1883913;75;21106;-78
2023/04/24 06:48:36;;;;;;;3.12;0.95;;;11.50;99.90;;;;;;1885322;75;21188;-77
2023/04/24 06:51:28;;;;;;;2.15;0.60;;;11.50;99.90;;;;;;1881716;75;21135;-77
2023/04/24 06:54:20;;;;;;;1.35;0.80;;;11.60;99.90;;;;;;1890014;75;21661;-78
2023/04/24 06:57:12;;;;;;;1.52;0.80;;;11.70;99.90;;;;;;1879614;74;21098;-79
2023/04/24 07:00:06;;;;;;;1.87;0.70;;;11.90;99.90;;;;;;1846264;77;21110;-78
2023/04/24 07:02:57;;;;;;;2.83;0.80;;;12.10;99.90;;;;;;1838626;77;21242;-77
2023/04/24 07:05:49;;;;;;;1.77;0.88;;;12.20;99.90;;;;;;1832573;77;21225;-77
2023/04/24 07:08:42;;;;;;;0.93;0.65;;;12.20;99.90;;;;;;1829693;76;21550;-77
2023/04/24 07:11:35;;;;;;;1.90;1.00;;;12.10;99.90;;;;;;1845631;77;21190;-77
2023/04/24 07:14:27;;;;;;;1.90;1.07;;;12.00;99.90;;;;;;1850162;77;21232;-77
2023/04/24 07:17:23;;;;;;;2.22;1.05;;;12.00;99.90;;;;;;1898347;73;21109;-77
2023/04/24 07:20:16;;;;;;;2.35;1.10;;;12.00;99.90;;;;;;1898231;74;21137;-78
2023/04/24 07:23:17;;;;;;;2.02;1.10;;;12.00;99.90;;;;;;1914730;74;21147;-79
2023/04/24 07:26:14;;;;;;;0.98;0.68;;;12.00;99.90;;;;;;1911291;74;21210;-78
2023/04/24 07:29:08;;;;;;;2.12;0.90;;;11.90;99.90;;;;;;1892328;76;21171;-78
2023/04/24 07:32:01;;;;;;;1.37;0.70;;;12.00;99.90;;;;;;1897834;74;21113;-78
2023/04/24 07:34:57;;;;;;;2.65;1.00;;;12.00;99.90;;;;;;1914581;74;21183;-77
2023/04/24 07:37:52;;;;;;;3.00;0.95;;;12.00;99.90;;;;;;1930394;73;21094;-77
2023/04/24 07:40:47;;;;;;;2.70;0.75;;;12.00;99.90;;;;;;1897550;75;21105;-77
2023/04/24 07:43:41;;;;;;;1.82;0.80;;;12.00;99.90;;;;;;1907708;74;21663;-77
2023/04/24 07:46:35;;;;;;;1.52;0.57;;;11.90;99.90;;;;;;1903188;74;21156;-79
2023/04/24 07:49:33;;;;;;;2.98;1.45;;;11.90;99.90;;;;;;1921205;74;21553;-79
2023/04/24 07:52:28;;;;;;;1.72;1.25;;;12.00;99.90;;;;;;1905281;74;21085;-77
2023/04/24 07:55:24;;;;;;;1.92;0.70;;;12.00;99.90;;;;;;1905244;74;21429;-78
2023/04/24 07:58:20;;;;;;;0.90;0.70;;;12.10;99.90;;;;;;1908028;74;21106;-77
2023/04/24 08:01:13;;;;;;;2.70;0.80;;;12.30;99.90;;;;;;1903886;74;21176;-77
2023/04/24 08:04:10;;;;;;;2.20;0.95;;;12.30;99.90;;;;;;1903116;74;21091;-78
2023/04/24 08:07:03;;;;;;;4.47;0.60;;;12.20;99.90;;;;;;1903877;74;21090;-77
2023/04/24 08:09:55;;;;;;;1.22;0.75;;;12.30;99.90;;;;;;1906597;74;21674;-77
2023/04/24 08:12:49;;;;;;;0.60;0.40;;;12.30;99.90;;;;;;1892709;74;21122;-77
2023/04/24 08:15:42;;;;;;;1.95;0.88;;;12.30;99.90;;;;;;1901813;74;21582;-78
2023/04/24 08:21:16;;;;;;;1.07;0.55;;;12.40;99.90;;;;;;1936219;72;22181;-79
2023/04/24 08:24:08;;;;;;;1.60;0.50;;;12.40;99.90;;;;;;1886004;75;21159;-79
2023/04/24 08:26:59;;;;;;;1.95;0.60;;;12.30;99.90;;;;;;1882467;75;21157;-78
2023/04/24 08:29:54;;;;;;;1.10;0.50;;;12.30;99.90;;;;;;1901625;75;21131;-78
2023/04/24 08:32:45;;;;;;;1.65;0.50;;;12.40;99.90;;;;;;1880281;74;21436;-78
2023/04/24 08:35:38;;;;;;;2.72;0.62;;;12.50;99.90;;;;;;1872045;76;21165;-78
2023/04/24 08:38:31;;;;;;;1.72;0.70;;;12.70;99.90;;;;;;1881570;75;21169;-78
2023/04/24 08:41:25;;;;;;;2.85;1.12;;;12.80;99.90;;;;;;1898424;75;21147;-78
2023/04/24 08:44:17;;;;;;;1.50;1.17;;;12.90;99.90;;;;;;1871587;76;21706;-78
2023/04/24 08:47:10;;;;;;;1.85;0.70;;;13.00;99.90;;;;;;1881178;74;21170;-79
2023/04/24 08:50:03;;;;;;;1.07;0.70;;;13.10;99.90;;;;;;1884249;75;21102;-79
2023/04/24 08:52:56;;;;;;;2.08;1.30;;;13.20;99.90;;;;;;1882518;75;21095;-78
2023/04/24 08:55:51;;;;;;;2.30;1.57;;;13.30;99.90;;;;;;1879866;75;21128;-78
2023/04/24 08:58:43;;;;;;;1.55;1.37;;;13.60;99.90;;;;;;1892330;75;21117;-78
2023/04/24 09:01:43;;;;;;;2.17;1.87;;;13.80;99.90;;;;;;1871864;73;21103;-79
2023/04/24 09:04:40;;;;;;;3.27;2.98;;;13.80;99.90;;;;;;1872215;76;21103;-78
2023/04/24 09:10:16;;;;;;;1.82;1.10;;;14.10;99.90;;;;;;1972928;72;22265;-80
2023/04/24 09:13:08;;;;;;;2.00;0.80;;;14.20;99.90;;;;;;1916984;75;21188;-80
2023/04/24 09:16:00;;;;;;;1.95;1.00;;;14.20;99.90;;;;;;1931203;73;21169;-79
2023/04/24 09:18:52;;;;;;;1.77;0.60;;;14.40;99.90;;;;;;1939654;73;21595;-79
2023/04/24 09:21:47;;;;;;;2.35;0.68;;;14.50;99.90;;;;;;1916645;75;21156;-78
2023/04/24 09:24:39;;;;;;;0.98;0.50;;;14.80;99.90;;;;;;1938205;73;21153;-78
2023/04/24 09:27:32;;;;;;;2.77;2.37;;;15.00;99.90;;;;;;1916643;75;21596;-77
2023/04/24 09:30:24;;;;;;;3.50;0.95;;;15.20;99.90;;;;;;1916748;75;21132;-77
2023/04/24 09:33:16;;;;;;;1.35;0.57;;;15.20;99.90;;;;;;1916467;73;21107;-77
2023/04/24 09:36:08;;;;;;;0.93;0.53;;;15.10;99.90;;;;;;1916946;75;21052;-77
2023/04/24 09:39:02;;;;;;;1.37;0.90;;;15.30;99.90;;;;;;1935303;73;21106;-79
2023/04/24 09:41:55;;;;;;;1.32;0.80;;;15.50;99.90;;;;;;1937569;73;21117;-79
2023/04/24 09:47:30;;;;;;;1.50;0.70;;;15.60;99.90;;;;;;1945296;72;22126;-79
2023/04/24 09:50:23;;;;;;;1.37;0.70;;;15.40;99.90;;;;;;1901456;74;21114;-79
2023/04/24 09:53:14;;;;;;;1.62;0.70;;;15.40;99.90;;;;;;1896597;75;21098;-79
2023/04/24 09:56:09;;;;;;;1.90;0.70;;;15.40;99.90;;;;;;1894809;75;21320;-77
2023/04/24 09:59:07;;;;;;;2.30;0.70;;;15.40;99.90;;;;;;1894658;75;21190;-77
2023/04/24 10:02:00;;;;;;;2.60;1.10;;;15.50;99.90;;;;;;1894910;75;21066;-77
2023/04/24 10:07:48;;;;;;;3.50;0.70;;;15.70;99.90;;;;;;1916326;75;21098;-78
2023/04/24 10:10:42;;;;;;;0.50;0.42;;;15.90;99.90;;;;;;1883747;75;21569;-77
2023/04/24 10:13:34;;;;;;;0.93;0.50;;;16.00;99.90;;;;;;1909301;75;21231;-77
2023/04/24 10:16:28;;;;;;;1.25;0.60;;;16.00;99.90;;;;;;1896549;75;21168;-77
2023/04/24 10:19:20;;;;;;;1.50;0.65;;;15.90;99.90;;;;;;1899574;75;21539;-77
2023/04/24 10:22:11;;;;;;;2.00;0.75;;;15.70;99.90;;;;;;1894574;75;21086;-77
2023/04/24 10:25:07;;;;;;;1.07;0.50;;;15.80;99.90;;;;;;1894615;75;21572;-77
2023/04/24 10:28:01;;;;;;;1.07;0.47;;;16.10;99.90;;;;;;1899552;75;21346;-78
2023/04/24 10:30:57;;;;;;;0.88;0.40;;;16.10;99.90;;;;;;1897376;75;21178;-78
2023/04/24 10:36:32;;;;;;;3.10;0.40;;;15.80;99.90;;;;;;1944946;72;22170;-79
2023/04/24 10:39:24;;;;;;;0.75;0.40;;;15.80;99.90;;;;;;1916375;75;21197;-79
2023/04/24 10:42:18;;;;;;;1.72;0.55;;;16.00;99.90;;;;;;1916187;75;21180;-78
2023/04/24 10:45:18;;;;;;;0.78;0.40;;;15.90;99.90;;;;;;1916496;75;21120;-78
2023/04/24 10:48:13;;;;;;;0.57;0.40;;;16.00;99.90;;;;;;1922864;74;21139;-78
2023/04/24 10:51:05;;;;;;;3.70;2.20;;;16.10;99.90;;;;;;1917050;75;21193;-78
2023/04/24 10:56:38;;;;;;;0.95;0.55;;;16.60;99.90;;;;;;1975413;72;22126;-77
2023/04/24 10:59:31;;;;;;;0.68;0.50;;;16.90;99.90;;;;;;1937996;73;21676;-78
2023/04/24 11:02:25;;;;;;;1.10;0.70;;;16.80;99.90;;;;;;1935810;73;21142;-78
2023/04/24 11:05:18;;;;;;;1.95;0.57;;;16.80;99.90;;;;;;1916853;75;21537;-78
2023/04/24 11:08:14;;;;;;;0.95;0.70;;;16.80;99.90;;;;;;1917192;75;21616;-77
2023/04/24 11:11:11;;;;;;;1.05;0.40;;;16.80;99.90;;;;;;1917057;75;21168;-77
2023/04/24 11:14:10;;;;;;;1.50;0.50;;;16.90;99.90;;;;;;1916895;75;21455;-79
2023/04/24 11:17:00;;;;;;;;;;;16.90;99.90;;;;;;1919446;75;21213;-77
2023/04/24 11:20:00;;;;;;;0.80;0.55;;;16.90;99.90;;;;;;1916731;75;20544;-77
2023/04/24 11:22:57;;;;;;;0.70;0.50;;;16.90;99.90;;;;;;1916535;75;21189;-77
2023/04/24 11:25:57;;;;;;;2.83;0.62;;;16.80;99.90;;;;;;1916481;75;21044;-77
2023/04/24 11:28:50;;;;;;;1.25;0.60;;;16.90;99.90;;;;;;1916868;75;21059;-78
2023/04/24 11:31:48;;;;;;;0.90;0.33;;;16.90;99.90;;;;;;1934809;73;21107;-78
2023/04/24 11:34:39;;;;;;;2.58;1.12;;;17.00;99.90;;;;;;1932796;73;21103;-79
2023/04/24 11:37:35;;;;;;;3.40;0.62;;;16.90;99.90;;;;;;1928501;73;21096;-78
2023/04/24 11:40:27;;;;;;;0.82;0.40;;;16.80;99.90;;;;;;1916759;75;21565;-78
2023/04/24 11:43:20;;;;;;;1.25;0.40;;;16.80;99.90;;;;;;1916757;75;21095;-77
2023/04/24 11:46:12;;;;;;;0.78;0.30;;;16.80;99.90;;;;;;1923468;73;21207;-78
2023/04/24 11:49:05;;;;;;;1.77;0.80;;;17.00;99.90;;;;;;1939418;73;21105;-77
2023/04/24 11:51:58;;;;;;;0.75;0.57;;;17.00;99.90;;;;;;1915811;75;21060;-78
2023/04/24 11:54:52;;;;;;;0.82;0.40;;;17.20;99.90;;;;;;1916561;75;21110;-78
2023/04/24 11:57:45;;;;;;;0.47;0.30;;;17.40;99.90;;;;;;1939023;73;21153;-78
2023/04/24 12:00:38;;;;;;;1.42;0.50;;;17.50;99.90;;;;;;1939172;73;21127;-77
2023/04/24 12:03:32;;;;;;;1.00;0.50;;;17.50;99.90;;;;;;1916255;75;22239;-80
2023/04/24 12:06:24;;;;;;;0.85;0.57;;;17.60;99.90;;;;;;1916558;75;21055;-78
2023/04/24 12:09:15;;;;;;;1.40;0.30;;;17.60;99.90;;;;;;1915574;73;21136;-78
2023/04/24 12:12:09;;;;;;;1.20;0.50;;;17.50;99.90;;;;;;1916267;75;21471;-78
2023/04/24 12:15:02;;;;;;;0.42;0.40;;;17.60;99.90;;;;;;1916813;73;21129;-77
2023/04/24 12:17:55;;;;;;;0.50;0.35;;;17.60;99.90;;;;;;1948589;73;21098;-79
2023/04/24 12:20:46;;;;;;;0.88;0.47;;;17.70;99.90;;;;;;1929145;73;21090;-79
2023/04/24 12:23:38;;;;;;;3.47;0.50;;;17.90;99.90;;;;;;1926884;73;21078;-77
2023/04/24 12:26:30;;;;;;;0.57;0.47;;;18.00;99.90;;;;;;1927052;73;21134;-77
2023/04/24 12:29:23;;;;;;;2.35;0.53;;;18.40;99.90;;;;;;1930215;73;21196;-77
2023/04/24 12:32:19;;;;;;;2.00;0.68;;;18.70;99.90;;;;;;1916176;73;21074;-78
2023/04/24 12:35:11;;;;;;;0.98;0.53;;;18.90;99.90;;;;;;1926499;73;21102;-77
2023/04/24 12:38:09;;;;;;;0.60;0.50;;;19.00;99.90;;;;;;1921356;73;21189;-77
2023/04/24 12:41:08;;;;;;;1.27;0.68;;;19.00;99.90;;;;;;1917876;73;21090;-77
2023/04/24 12:43:59;;;;;;;1.05;0.50;;;18.90;99.90;;;;;;1928477;73;21114;-77
2023/04/24 12:46:51;;;;;;;0.90;0.40;;;18.90;99.90;;;;;;1925925;74;21106;-77
2023/04/24 12:49:42;;;;;;;0.90;0.42;;;19.00;99.90;;;;;;1916006;75;21107;-77
2023/04/24 12:52:34;;;;;;;1.67;0.60;;;18.90;99.90;;;;;;1920763;73;21139;-78
2023/04/24 12:55:25;;;;;;;1.60;0.50;;;18.80;99.90;;;;;;1927134;73;21603;-77
2023/04/24 12:58:17;;;;;;;1.37;0.47;;;18.70;99.90;;;;;;1924700;73;21110;-78
2023/04/24 13:01:08;;;;;;;0.98;0.40;;;18.70;99.90;;;;;;1933087;73;21099;-77
2023/04/24 13:04:00;;;;;;;0.35;0.33;;;18.70;99.90;;;;;;1925931;74;21832;-77
2023/04/24 13:09:33;;;;;;;1.10;0.50;;;18.60;99.90;;;;;;1954899;72;22134;-77
2023/04/24 13:12:25;;;;;;;0.78;0.62;;;18.70;98.90;;;;;;1895377;74;21129;-77
2023/04/24 13:15:17;;;;;;;2.62;0.50;;;18.80;98.90;;;;;;1888966;75;21170;-77
2023/04/24 13:18:08;;;;;;;0.93;0.35;;;18.80;96.80;;;;;;1883597;75;21584;-77
2023/04/24 13:21:00;;;;;;;2.10;0.53;;;18.40;96.30;;;;;;1883770;75;21213;-79
2023/04/24 13:23:52;;;;;;;1.02;0.47;;;18.40;96.00;;;;;;1883882;76;21203;-79
2023/04/24 13:26:43;;;;;;;1.70;0.40;;;18.60;96.00;;;;;;1906045;75;21183;-79
2023/04/24 13:29:34;;;;;;;1.62;0.42;;;18.70;96.80;;;;;;1903366;75;21071;-79
2023/04/24 13:32:27;;;;;;;1.95;0.50;;;18.60;96.60;;;;;;1888770;75;21099;-78
2023/04/24 13:35:22;;;;;;;0.70;0.33;;;18.60;96.60;;;;;;1896366;75;21143;-78
2023/04/24 13:38:15;;;;;;;2.12;0.50;;;18.60;97.10;;;;;;1878818;75;21225;-78
2023/04/24 13:41:06;;;;;;;1.07;0.50;;;18.80;97.20;;;;;;1911714;73;21140;-78
2023/04/24 13:43:58;;;;;;;0.95;0.40;;;19.10;97.40;;;;;;1933201;73;21126;-78
2023/04/24 13:46:51;;;;;;;1.30;0.50;;;19.40;96.80;;;;;;1910038;75;21087;-78
2023/04/24 13:49:43;;;;;;;1.37;0.40;;;19.50;96.30;;;;;;1905547;75;21187;-78
2023/04/24 13:52:37;;;;;;;3.08;0.37;;;19.80;96.20;;;;;;1883563;75;21657;-77
2023/04/24 13:55:28;;;;;;;1.12;0.40;;;19.70;93.20;;;;;;1876021;75;21691;-77
2023/04/24 13:58:20;;;;;;;1.15;0.40;;;19.40;91.50;;;;;;1905498;75;21098;-77
2023/04/24 14:01:11;;;;;;;0.60;0.40;;;19.70;91.10;;;;;;1883571;75;21117;-77
2023/04/24 14:04:03;;;;;;;0.80;0.55;;;20.40;90.90;;;;;;1906107;75;21110;-77
2023/04/24 14:06:55;;;;;;;2.65;0.40;;;20.60;89.30;;;;;;1905961;75;21180;-77
2023/04/24 14:12:25;;;;;;;1.47;0.40;;;21.30;90.10;;;;;;1945441;72;22671;-78
2023/04/24 14:15:17;;;;;;;2.37;0.40;;;21.80;86.70;;;;;;1905957;75;21159;-79
2023/04/24 14:18:08;;;;;;;2.22;0.60;;;22.00;83.50;;;;;;1904536;73;21068;-79
2023/04/24 14:21:00;;;;;;;1.32;0.40;;;21.80;83.60;;;;;;1920127;74;21424;-78
2023/04/24 14:23:52;;;;;;;1.25;0.50;;;22.30;83.60;;;;;;1905336;74;21589;-78
2023/04/24 14:26:44;;;;;;;0.88;0.47;;;22.60;82.80;;;;;;1904486;75;21117;-77
2023/04/24 14:29:35;;;;;;;1.60;0.50;;;22.80;81.60;;;;;;1904284;74;21096;-78
2023/04/24 14:32:27;;;;;;;1.62;0.60;;;22.60;80.00;;;;;;1908709;73;21146;-78
2023/04/24 14:35:18;;;;;;;0.88;0.45;;;22.60;79.80;;;;;;1904024;75;21708;-78
2023/04/24 14:38:10;;;;;;;1.42;0.40;;;22.50;79.10;;;;;;1903670;75;21197;-78
2023/04/24 14:41:08;;;;;;;0.65;0.40;;;22.30;77.60;;;;;;1903797;75;21136;-78
2023/04/24 14:43:56;;;;;;;1.80;0.50;;;22.50;78.30;;;;;;1904363;75;21122;-78
2023/04/24 14:49:28;;;;;;;1.25;0.70;;;22.80;80.10;;;;;;1932522;72;22122;-78
2023/04/24 14:52:20;;;;;;;0.78;0.40;;;23.30;77.70;;;;;;1896028;74;21765;-79
2023/04/24 14:55:12;;;;;;;1.30;0.60;;;23.50;75.80;;;;;;1883461;76;21125;-78
2023/04/24 14:58:05;;;;;;;0.85;0.50;;;24.10;74.10;;;;;;1895924;75;21171;-78
2023/04/24 15:00:56;;;;;;;3.00;0.70;;;24.10;74.40;;;;;;1887446;75;21183;-78
2023/04/24 15:03:48;;;;;;;1.55;0.65;;;24.40;71.50;;;;;;1905949;75;21130;-78
2023/04/24 15:06:40;;;;;;;0.85;0.50;;;24.00;67.80;;;;;;1883815;75;21365;-78
2023/04/24 15:09:32;;;;;;;2.75;0.60;;;24.30;68.90;;;;;;1897712;75;21267;-78
2023/04/24 15:12:24;;;;;;;0.85;0.40;;;24.00;66.70;;;;;;1893934;75;21103;-78
2023/04/24 15:15:16;;;;;;;0.88;0.40;;;23.80;67.30;;;;;;1911713;75;21110;-78
2023/04/24 15:18:28;;;;;;;0.37;0.30;;;23.40;64.40;;;;;;1879597;73;21128;-78
2023/04/24 15:21:20;;;;;;;1.65;0.60;;;23.90;65.10;;;;;;1882523;75;21158;-78
2023/04/24 15:24:20;;;;;;;0.88;0.40;;;23.90;64.90;;;;;;1898935;75;21051;-79
2023/04/24 15:27:12;;;;;;;3.27;0.60;;;23.80;64.40;;;;;;1895815;75;21087;-79
2023/04/24 15:30:05;;;;;;;0.95;0.50;;;23.80;64.20;;;;;;1894347;75;21617;-79
2023/04/24 15:32:57;;;;;;;1.55;0.60;;;24.50;62.40;;;;;;1902307;73;21097;-78